Time;durP1;ratioP1;P1;durP2;ratioP2;P2;SDS_P1;SDS_P2;PMS_P1;PMS_P2;Temp;Humidity;BMP_temperature;BMP_pressure;BME280_temperature;BME280_humidity;BME280_pressure;Samples;Min_cycle;Max_cycle;Signal;HPM_P1;HPM_P2
2022/05/27 00:02:03;;;;;;;4.97;1.43;;;16.90;99.90;;;;;;5025736;28;20545;-81
2022/05/27 00:04:30;;;;;;;5.67;1.40;;;16.90;99.90;;;;;;5026463;28;20544;-81
2022/05/27 00:06:57;;;;;;;3.47;1.30;;;16.90;99.90;;;;;;5026344;28;20467;-82
2022/05/27 00:09:25;;;;;;;6.13;1.50;;;16.90;99.90;;;;;;5025748;28;20462;-80
2022/05/27 00:11:53;;;;;;;7.57;2.00;;;16.80;99.90;;;;;;5025169;28;20454;-81
2022/05/27 00:14:20;;;;;;;3.40;1.50;;;16.80;99.90;;;;;;5026687;28;20474;-81
2022/05/27 00:16:46;;;;;;;3.90;1.67;;;16.80;99.90;;;;;;5025264;28;21004;-81
2022/05/27 00:19:14;;;;;;;3.47;1.30;;;16.60;99.90;;;;;;5025666;28;20450;-81
2022/05/27 00:21:41;;;;;;;4.17;2.03;;;16.70;99.90;;;;;;5025751;28;20464;-81
2022/05/27 00:24:08;;;;;;;7.40;1.90;;;16.60;99.90;;;;;;5027782;28;20487;-80
2022/05/27 00:26:34;;;;;;;3.60;1.87;;;16.60;99.90;;;;;;5027582;28;20457;-81
2022/05/27 00:29:03;;;;;;;3.60;2.00;;;16.60;99.90;;;;;;5027016;28;20541;-81
2022/05/27 00:31:30;;;;;;;4.93;2.10;;;16.50;99.90;;;;;;5026060;28;20551;-81
2022/05/27 00:33:56;;;;;;;4.50;1.83;;;16.50;99.90;;;;;;5026270;28;20913;-81
2022/05/27 00:36:23;;;;;;;4.43;2.27;;;16.50;99.90;;;;;;5027257;28;20522;-82
2022/05/27 00:38:51;;;;;;;5.50;2.80;;;16.50;99.90;;;;;;5027685;28;20590;-81
2022/05/27 00:41:18;;;;;;;5.73;2.13;;;16.30;99.90;;;;;;5010763;28;20481;-80
2022/05/27 00:43:45;;;;;;;4.37;2.50;;;16.30;99.90;;;;;;5028238;28;20484;-80
2022/05/27 00:46:17;;;;;;;5.73;2.60;;;16.10;99.90;;;;;;5028058;28;20446;-81
2022/05/27 00:48:46;;;;;;;4.47;2.20;;;16.00;99.90;;;;;;5026709;28;20468;-81
2022/05/27 00:51:15;;;;;;;3.50;2.17;;;15.90;99.90;;;;;;5025062;28;20460;-82
2022/05/27 00:53:46;;;;;;;5.40;2.23;;;15.90;99.90;;;;;;5028009;28;20486;-80
2022/05/27 00:56:16;;;;;;;2.90;1.87;;;15.80;99.90;;;;;;5027525;28;20491;-81
2022/05/27 00:58:47;;;;;;;4.23;2.23;;;15.90;99.90;;;;;;5028159;28;20473;-81
2022/05/27 01:01:16;;;;;;;4.07;2.07;;;16.00;99.90;;;;;;5026334;28;20463;-81
2022/05/27 01:03:44;;;;;;;3.40;2.43;;;16.00;99.90;;;;;;5026593;28;20477;-81
2022/05/27 01:06:11;;;;;;;8.17;2.63;;;16.10;99.90;;;;;;5025448;28;20467;-79
2022/05/27 01:08:38;;;;;;;3.90;2.00;;;16.10;99.90;;;;;;5027436;28;20476;-81
2022/05/27 01:11:14;;;;;;;5.70;2.47;;;16.10;99.90;;;;;;5028901;28;20520;-82
2022/05/27 01:13:51;;;;;;;9.10;2.87;;;16.10;99.90;;;;;;5029309;28;20487;-81
2022/05/27 01:16:37;;;;;;;5.23;2.00;;;16.20;99.90;;;;;;5026208;28;20485;-80
2022/05/27 01:22:28;;;;;;;4.37;1.93;;;16.10;99.90;;;;;;5027124;28;20458;-82
2022/05/27 01:25:18;;;;;;;3.73;2.03;;;16.10;99.90;;;;;;5026026;28;20507;-84
2022/05/27 01:28:08;;;;;;;6.67;1.93;;;16.10;99.90;;;;;;5027026;28;20462;-82
2022/05/27 01:30:38;;;;;;;4.83;2.30;;;16.00;99.90;;;;;;5028011;28;20462;-82
2022/05/27 01:33:18;;;;;;;5.13;2.27;;;16.00;99.90;;;;;;5027646;28;20452;-81
2022/05/27 01:35:48;;;;;;;7.27;3.10;;;15.90;99.90;;;;;;5027596;28;20513;-81
2022/05/27 01:38:21;;;;;;;3.50;2.60;;;15.90;99.90;;;;;;5026354;28;20492;-83
2022/05/27 01:40:56;;;;;;;3.60;2.00;;;15.90;99.90;;;;;;5028272;28;20456;-82
2022/05/27 01:43:29;;;;;;;3.70;2.30;;;15.90;99.90;;;;;;5028130;28;20849;-80
2022/05/27 01:46:03;;;;;;;4.33;2.30;;;15.90;99.90;;;;;;5028103;28;20453;-81
2022/05/27 01:48:37;;;;;;;4.60;2.70;;;15.90;99.90;;;;;;5027424;28;20442;-81
2022/05/27 01:51:10;;;;;;;5.17;2.17;;;15.80;99.90;;;;;;5028126;28;20453;-81
2022/05/27 01:53:43;;;;;;;4.27;2.40;;;15.80;99.90;;;;;;5027704;28;20861;-82
2022/05/27 01:56:15;;;;;;;4.37;2.67;;;15.80;99.90;;;;;;5025207;28;20463;-81
2022/05/27 01:58:45;;;;;;;3.77;2.40;;;15.70;99.90;;;;;;5026351;28;20456;-80
2022/05/27 02:01:17;;;;;;;4.10;2.70;;;15.70;99.90;;;;;;5024869;28;20538;-79
2022/05/27 02:03:48;;;;;;;7.20;2.70;;;15.70;99.90;;;;;;5025494;28;20473;-80
2022/05/27 02:06:20;;;;;;;5.90;3.23;;;15.80;99.90;;;;;;5026244;28;20544;-81
2022/05/27 02:08:54;;;;;;;3.40;2.37;;;15.70;99.90;;;;;;5028665;28;20496;-82
2022/05/27 02:11:23;;;;;;;5.00;3.10;;;15.70;99.90;;;;;;5028315;28;20460;-81
2022/05/27 02:13:57;;;;;;;4.40;3.20;;;15.80;99.90;;;;;;5028099;28;20477;-80
2022/05/27 02:16:32;;;;;;;7.07;3.10;;;15.80;99.90;;;;;;5028700;28;20528;-81
2022/05/27 02:19:03;;;;;;;4.63;3.20;;;15.80;99.90;;;;;;5031012;28;20429;-80
2022/05/27 02:21:34;;;;;;;8.50;2.73;;;15.70;99.90;;;;;;5028022;28;20469;-81
2022/05/27 02:24:04;;;;;;;6.30;3.50;;;15.70;99.90;;;;;;5028582;28;21010;-81
2022/05/27 02:26:34;;;;;;;5.43;3.30;;;15.80;99.90;;;;;;5027459;28;21178;-81
2022/05/27 02:29:07;;;;;;;5.63;3.23;;;15.80;99.90;;;;;;5026632;28;20754;-80
2022/05/27 02:31:38;;;;;;;4.30;2.77;;;15.70;99.90;;;;;;5026168;28;20900;-79
2022/05/27 02:36:57;;;;;;;4.70;3.27;;;15.70;99.90;;;;;;5026851;28;20482;-81
2022/05/27 02:39:25;;;;;;;4.73;3.50;;;15.70;99.90;;;;;;5026015;28;20776;-80
2022/05/27 02:42:00;;;;;;;3.57;2.93;;;15.60;99.90;;;;;;5025401;28;20477;-82
2022/05/27 02:44:37;;;;;;;5.33;3.43;;;15.50;99.90;;;;;;5023847;28;20532;-80
2022/05/27 02:47:13;;;;;;;5.07;2.83;;;15.40;99.90;;;;;;5021589;28;20447;-81
2022/05/27 02:49:49;;;;;;;5.47;3.73;;;15.30;99.90;;;;;;5023536;28;20462;-81
2022/05/27 02:52:26;;;;;;;7.70;3.90;;;15.30;99.90;;;;;;5008628;28;20459;-82
2022/05/27 02:55:00;;;;;;;9.20;3.83;;;15.20;99.90;;;;;;5023060;28;20471;-82
2022/05/27 02:57:33;;;;;;;7.50;4.00;;;15.20;99.90;;;;;;5048150;23;20520;-80
2022/05/27 03:00:06;;;;;;;8.53;4.20;;;15.00;99.90;;;;;;5010945;28;20441;-81
2022/05/27 03:02:34;;;;;;;7.90;4.83;;;15.00;99.90;;;;;;5032066;28;20462;-81
2022/05/27 03:05:02;;;;;;;5.50;3.80;;;14.90;99.90;;;;;;5045102;28;20448;-81
2022/05/27 03:07:44;;;;;;;5.10;3.40;;;14.80;99.90;;;;;;5045880;28;20460;-81
2022/05/27 03:10:27;;;;;;;8.50;4.70;;;14.80;99.90;;;;;;5044830;28;20491;-81
2022/05/27 03:13:12;;;;;;;4.67;3.63;;;14.80;99.90;;;;;;5046747;28;20455;-82
2022/05/27 03:15:51;;;;;;;12.40;4.60;;;14.80;99.90;;;;;;5025651;28;20459;-83
2022/05/27 03:18:32;;;;;;;8.00;4.00;;;14.80;99.90;;;;;;5021694;28;20496;-81
2022/05/27 03:21:09;;;;;;;7.20;4.30;;;14.70;99.90;;;;;;5019995;28;20460;-81
2022/05/27 03:23:53;;;;;;;10.17;4.40;;;14.70;99.90;;;;;;5021121;28;20439;-83
2022/05/27 03:26:25;;;;;;;6.10;5.10;;;14.70;99.90;;;;;;5035643;28;20456;-80
2022/05/27 03:29:11;;;;;;;8.10;4.47;;;14.70;99.90;;;;;;5037396;28;20936;-79
2022/05/27 03:31:44;;;;;;;8.97;5.43;;;14.70;99.90;;;;;;5037777;28;20444;-80
2022/05/27 03:34:18;;;;;;;7.00;4.80;;;14.70;99.90;;;;;;5036676;28;20516;-82
2022/05/27 03:36:51;;;;;;;4.33;3.40;;;14.60;99.90;;;;;;5034206;28;20476;-81
2022/05/27 03:39:22;;;;;;;3.20;2.73;;;14.50;99.90;;;;;;5034609;28;20421;-82
2022/05/27 03:41:52;;;;;;;4.93;2.87;;;14.30;99.90;;;;;;5034225;28;20493;-81
2022/05/27 03:44:26;;;;;;;4.50;3.50;;;14.30;99.90;;;;;;5034624;28;20450;-82
2022/05/27 03:46:54;;;;;;;3.50;2.27;;;14.20;99.90;;;;;;4996742;28;20472;-81
2022/05/27 03:49:23;;;;;;;5.70;4.20;;;14.20;99.90;;;;;;4996272;28;20970;-80
2022/05/27 03:51:53;;;;;;;4.27;3.20;;;14.20;99.90;;;;;;4994666;28;20451;-82
2022/05/27 03:54:21;;;;;;;5.10;2.80;;;14.20;99.90;;;;;;4994581;28;20450;-81
2022/05/27 03:56:48;;;;;;;4.83;2.60;;;14.20;99.90;;;;;;5035664;28;21267;-80
2022/05/27 03:59:17;;;;;;;3.80;2.37;;;14.20;99.90;;;;;;5037814;28;20455;-80
2022/05/27 04:01:46;;;;;;;3.93;2.50;;;14.10;99.90;;;;;;5037129;28;20458;-79
2022/05/27 04:04:17;;;;;;;5.77;2.60;;;14.10;99.90;;;;;;5038462;28;20449;-80
2022/05/27 04:06:46;;;;;;;2.93;2.07;;;14.10;99.90;;;;;;5036248;28;20556;-82
2022/05/27 04:09:13;;;;;;;8.63;2.50;;;14.10;99.90;;;;;;5018916;28;20450;-81
2022/05/27 04:11:39;;;;;;;3.47;2.83;;;14.20;99.90;;;;;;5017955;28;20904;-80
2022/05/27 04:14:06;;;;;;;5.07;3.20;;;14.10;99.90;;;;;;5018062;28;20457;-81
2022/05/27 04:16:33;;;;;;;9.60;2.90;;;14.10;99.90;;;;;;5017964;28;20466;-81
2022/05/27 04:19:00;;;;;;;4.77;3.60;;;14.20;99.90;;;;;;5018260;28;20502;-82
2022/05/27 04:21:27;;;;;;;8.47;3.40;;;14.20;99.90;;;;;;4997091;28;20544;-83
2022/05/27 04:23:56;;;;;;;4.50;3.70;;;14.20;99.90;;;;;;4997689;28;20450;-82
2022/05/27 04:26:23;;;;;;;4.03;3.60;;;14.20;99.90;;;;;;4998428;28;20458;-81
2022/05/27 04:28:50;;;;;;;5.00;3.83;;;14.30;99.90;;;;;;4998368;28;20454;-80
2022/05/27 04:31:16;;;;;;;6.57;4.10;;;14.20;99.90;;;;;;5031466;28;20444;-81
2022/05/27 04:33:44;;;;;;;6.20;4.13;;;14.30;99.90;;;;;;5037407;28;20546;-82
2022/05/27 04:36:13;;;;;;;3.70;3.30;;;14.30;99.90;;;;;;5037160;28;20495;-81
2022/05/27 04:38:40;;;;;;;3.73;2.60;;;14.30;99.90;;;;;;5037101;28;20583;-82
2022/05/27 04:41:08;;;;;;;4.70;2.60;;;14.20;99.90;;;;;;5020189;28;20456;-82
2022/05/27 04:43:35;;;;;;;5.77;3.50;;;14.20;99.90;;;;;;5017389;28;20482;-82
2022/05/27 04:46:02;;;;;;;3.73;2.53;;;14.20;99.90;;;;;;5017448;28;20484;-80
2022/05/27 04:48:29;;;;;;;3.37;3.07;;;14.20;99.90;;;;;;5033576;28;20472;-80
2022/05/27 04:50:56;;;;;;;4.83;3.10;;;14.30;99.90;;;;;;5035963;28;20460;-81
2022/05/27 04:53:23;;;;;;;5.17;2.70;;;14.30;99.90;;;;;;5021901;28;20552;-82
2022/05/27 04:55:49;;;;;;;6.37;3.37;;;14.30;99.90;;;;;;5027602;28;20832;-81
2022/05/27 04:58:18;;;;;;;6.20;3.20;;;14.20;99.90;;;;;;5036016;28;20488;-83
2022/05/27 05:00:46;;;;;;;6.53;3.50;;;14.30;99.90;;;;;;5035874;28;20541;-82
2022/05/27 05:03:14;;;;;;;6.90;3.30;;;14.30;99.90;;;;;;5036880;28;20456;-83
2022/05/27 05:05:42;;;;;;;6.57;3.60;;;14.30;99.90;;;;;;5019011;28;20463;-82
2022/05/27 05:08:15;;;;;;;5.73;3.90;;;14.40;99.90;;;;;;5015346;28;20470;-82
2022/05/27 05:10:42;;;;;;;5.17;4.43;;;14.30;99.90;;;;;;5021959;28;20832;-81
2022/05/27 05:13:09;;;;;;;6.77;3.77;;;14.30;99.90;;;;;;5036172;28;20454;-82
2022/05/27 05:15:38;;;;;;;4.83;3.50;;;14.30;99.90;;;;;;5032523;28;20458;-82
2022/05/27 05:18:06;;;;;;;7.30;4.57;;;14.40;99.90;;;;;;5016196;28;21005;-82
2022/05/27 05:20:33;;;;;;;5.43;3.53;;;14.50;99.90;;;;;;5015687;28;20462;-81
2022/05/27 05:23:00;;;;;;;6.90;3.73;;;14.50;99.90;;;;;;5016878;28;20453;-79
2022/05/27 05:25:28;;;;;;;7.20;3.47;;;14.50;99.90;;;;;;5016755;28;20461;-79
2022/05/27 05:27:55;;;;;;;4.80;2.70;;;14.50;99.90;;;;;;5035666;28;20474;-80
2022/05/27 05:30:25;;;;;;;5.20;3.23;;;14.60;99.90;;;;;;5035372;28;20953;-82
2022/05/27 05:32:54;;;;;;;4.30;3.17;;;14.60;99.90;;;;;;5035520;28;20971;-82
2022/05/27 05:35:22;;;;;;;5.93;3.47;;;14.70;99.90;;;;;;5035585;28;20459;-81
2022/05/27 05:37:49;;;;;;;7.33;3.30;;;14.80;99.90;;;;;;4996405;28;20578;-81
2022/05/27 05:40:16;;;;;;;4.43;3.17;;;14.70;99.90;;;;;;4996212;28;20450;-82
2022/05/27 05:42:46;;;;;;;5.33;3.30;;;14.70;99.90;;;;;;4995374;28;20453;-81
2022/05/27 05:45:15;;;;;;;6.13;3.27;;;14.80;99.90;;;;;;5020656;28;20463;-79
2022/05/27 05:47:42;;;;;;;4.67;2.97;;;14.90;99.90;;;;;;5034716;28;20469;-78
2022/05/27 05:50:12;;;;;;;4.70;3.60;;;14.90;99.90;;;;;;5039036;28;20518;-82
2022/05/27 05:52:38;;;;;;;7.17;3.70;;;15.00;99.90;;;;;;5043208;28;20458;-82
2022/05/27 05:55:07;;;;;;;7.30;3.77;;;15.10;99.90;;;;;;5033732;28;20449;-81
2022/05/27 05:57:37;;;;;;;5.37;3.33;;;15.20;99.90;;;;;;5024139;28;20498;-79
2022/05/27 06:00:06;;;;;;;5.30;3.80;;;15.30;99.90;;;;;;5024926;28;20452;-80
2022/05/27 06:02:33;;;;;;;7.47;3.70;;;15.40;99.90;;;;;;5024100;28;20453;-80
2022/05/27 06:05:03;;;;;;;5.90;3.13;;;15.40;99.90;;;;;;5031358;28;20451;-80
2022/05/27 06:07:31;;;;;;;4.80;3.63;;;15.60;99.90;;;;;;5043822;28;20628;-82
2022/05/27 06:09:58;;;;;;;6.17;4.10;;;15.50;99.90;;;;;;5043236;28;20455;-80
2022/05/27 06:12:25;;;;;;;6.30;3.50;;;15.50;99.90;;;;;;5043663;28;20799;-80
2022/05/27 06:14:53;;;;;;;4.43;3.30;;;15.70;99.90;;;;;;5037960;28;20487;-79
2022/05/27 06:17:19;;;;;;;7.07;3.20;;;15.70;99.90;;;;;;5024196;28;20476;-80
2022/05/27 06:19:46;;;;;;;8.57;3.50;;;15.90;99.90;;;;;;5024682;28;20541;-80
2022/05/27 06:22:13;;;;;;;7.33;4.43;;;16.00;99.90;;;;;;5021808;28;20482;-80
2022/05/27 06:24:41;;;;;;;5.40;3.40;;;15.90;99.90;;;;;;5023608;28;20862;-82
2022/05/27 06:27:08;;;;;;;7.70;3.27;;;15.80;99.90;;;;;;5032140;28;20469;-82
2022/05/27 06:35:04;;;;;;;8.80;3.70;;;15.90;99.90;;;;;;5045083;28;20433;-80
2022/05/27 06:37:31;;;;;;;10.60;4.80;;;16.10;99.90;;;;;;5033724;28;20849;-80
2022/05/27 06:39:59;;;;;;;7.90;4.40;;;16.10;99.90;;;;;;5024784;28;20472;-82
2022/05/27 06:42:27;;;;;;;6.77;4.23;;;16.20;99.90;;;;;;5023839;28;20804;-79
2022/05/27 06:44:54;;;;;;;6.73;3.63;;;16.10;99.90;;;;;;5026337;28;20457;-80
2022/05/27 06:47:20;;;;;;;6.70;4.60;;;16.40;99.90;;;;;;5032067;28;20482;-79
2022/05/27 06:49:48;;;;;;;6.40;4.53;;;16.40;99.90;;;;;;5044729;28;20491;-82
2022/05/27 06:52:15;;;;;;;8.90;4.83;;;16.50;99.90;;;;;;5043679;28;20508;-81
2022/05/27 06:54:42;;;;;;;9.03;4.80;;;16.50;99.90;;;;;;5043263;28;20551;-80
2022/05/27 06:57:11;;;;;;;7.93;5.00;;;16.60;99.90;;;;;;5038781;28;20482;-81
2022/05/27 06:59:38;;;;;;;5.53;4.17;;;16.60;99.90;;;;;;5024602;28;20483;-81
2022/05/27 07:02:05;;;;;;;11.70;4.83;;;16.50;99.90;;;;;;5024020;28;20457;-80
2022/05/27 07:04:32;;;;;;;8.07;5.37;;;16.70;99.90;;;;;;5023395;28;20442;-79
2022/05/27 07:06:59;;;;;;;9.17;5.63;;;16.70;99.90;;;;;;5025805;28;20496;-82
2022/05/27 07:09:26;;;;;;;6.30;4.13;;;16.70;99.90;;;;;;5039274;28;20441;-81
2022/05/27 07:11:56;;;;;;;7.33;5.10;;;16.80;99.90;;;;;;5025561;28;20449;-80
2022/05/27 07:14:24;;;;;;;8.00;5.07;;;17.00;99.90;;;;;;5026694;28;20444;-81
2022/05/27 07:16:51;;;;;;;9.77;4.27;;;17.20;99.90;;;;;;5027664;28;20476;-80
2022/05/27 07:19:19;;;;;;;9.70;4.37;;;17.50;99.90;;;;;;5031019;28;20486;-81
2022/05/27 07:21:47;;;;;;;7.30;4.70;;;17.30;99.90;;;;;;5043364;28;20456;-82
2022/05/27 07:24:16;;;;;;;7.50;4.67;;;17.20;99.90;;;;;;5043738;28;20452;-81
2022/05/27 07:26:45;;;;;;;5.13;3.70;;;17.10;99.90;;;;;;5026207;28;20462;-81
2022/05/27 07:29:12;;;;;;;6.43;3.50;;;17.30;99.90;;;;;;5025295;28;20448;-81
2022/05/27 07:31:42;;;;;;;9.20;4.07;;;17.30;99.90;;;;;;5027554;28;20454;-82
2022/05/27 07:34:09;;;;;;;7.37;3.87;;;17.40;99.90;;;;;;5027572;28;20436;-85
2022/05/27 07:36:36;;;;;;;11.30;4.10;;;17.70;99.90;;;;;;5035652;28;20442;-82
2022/05/27 07:39:04;;;;;;;5.13;3.00;;;17.70;99.90;;;;;;5034291;28;20490;-81
2022/05/27 07:41:31;;;;;;;7.67;3.30;;;17.60;99.90;;;;;;5035073;28;20450;-81
2022/05/27 07:43:59;;;;;;;7.50;3.50;;;17.50;99.90;;;;;;5055798;28;20437;-84
2022/05/27 07:46:26;;;;;;;5.83;3.53;;;17.50;99.90;;;;;;5052552;28;20445;-83
2022/05/27 07:48:55;;;;;;;13.97;3.67;;;17.80;99.90;;;;;;5049586;28;20432;-83
2022/05/27 07:51:22;;;;;;;5.17;3.10;;;17.90;99.90;;;;;;5028566;28;20457;-82
2022/05/27 07:53:49;;;;;;;9.13;4.00;;;17.90;99.90;;;;;;5029350;28;20454;-80
2022/05/27 07:56:16;;;;;;;6.87;3.00;;;17.90;99.90;;;;;;5028503;28;20451;-82
2022/05/27 07:58:43;;;;;;;6.93;3.10;;;17.80;99.90;;;;;;5027647;28;20505;-84
2022/05/27 08:01:09;;;;;;;8.87;2.90;;;18.10;99.90;;;;;;5026176;28;20542;-81
2022/05/27 08:03:36;;;;;;;4.97;2.90;;;18.40;99.90;;;;;;5027345;28;20462;-83
2022/05/27 08:06:04;;;;;;;7.60;3.00;;;18.50;99.90;;;;;;5027531;28;20457;-79
2022/05/27 08:08:31;;;;;;;3.67;2.57;;;18.20;99.90;;;;;;5026287;28;20542;-79
2022/05/27 08:10:58;;;;;;;8.03;3.20;;;18.40;99.90;;;;;;5025125;28;20449;-80
2022/05/27 08:13:26;;;;;;;6.00;3.03;;;18.40;99.90;;;;;;5036083;28;20489;-81
2022/05/27 08:15:53;;;;;;;7.37;3.20;;;18.60;99.90;;;;;;5030177;28;20459;-81
2022/05/27 08:18:20;;;;;;;7.00;3.33;;;18.60;99.90;;;;;;5023888;28;20502;-80
2022/05/27 08:20:48;;;;;;;11.23;3.97;;;18.60;99.90;;;;;;5024538;28;20456;-81
2022/05/27 08:23:16;;;;;;;7.67;3.80;;;18.40;99.90;;;;;;5024762;28;20510;-79
2022/05/27 08:25:43;;;;;;;5.80;3.40;;;18.80;99.90;;;;;;5035649;28;21001;-79
2022/05/27 08:28:09;;;;;;;5.07;3.27;;;18.80;99.90;;;;;;5042146;28;20467;-81
2022/05/27 08:30:39;;;;;;;6.03;3.60;;;19.00;99.90;;;;;;5041344;28;20461;-81
2022/05/27 08:33:06;;;;;;;10.43;2.97;;;19.10;99.90;;;;;;5041074;28;20525;-79
2022/05/27 08:38:22;;;;;;;8.97;2.70;;;18.90;99.90;;;;;;4991759;28;20476;-81
2022/05/27 08:41:08;;;;;;;7.97;3.20;;;19.10;99.90;;;;;;5021657;28;20460;-80
2022/05/27 08:43:42;;;;;;;7.27;3.43;;;19.30;99.90;;;;;;5027310;28;20483;-81
2022/05/27 08:46:19;;;;;;;4.80;2.77;;;19.60;99.90;;;;;;5025576;28;20495;-81
2022/05/27 08:48:50;;;;;;;3.80;2.40;;;20.00;99.90;;;;;;5022822;28;20501;-80
2022/05/27 08:51:21;;;;;;;5.03;2.70;;;19.90;99.90;;;;;;5022101;28;20442;-78
2022/05/27 08:53:53;;;;;;;9.47;2.53;;;19.70;99.90;;;;;;5024741;28;20541;-79
2022/05/27 08:59:31;;;;;;;7.00;2.70;;;19.30;99.90;;;;;;4945979;29;20528;-81
2022/05/27 09:02:03;;;;;;;7.93;3.40;;;19.10;99.90;;;;;;5011191;28;20549;-80
2022/05/27 09:04:37;;;;;;;6.40;2.60;;;18.90;99.90;;;;;;5026216;28;20430;-81
2022/05/27 09:07:14;;;;;;;5.37;2.37;;;18.70;99.90;;;;;;5025952;28;20487;-81
2022/05/27 09:09:43;;;;;;;9.10;3.03;;;18.50;99.90;;;;;;5045708;22;20526;-78
2022/05/27 09:12:36;;;;;;;7.73;2.80;;;18.10;99.90;;;;;;5014623;28;20450;-77
2022/05/27 09:15:10;;;;;;;6.70;2.73;;;17.90;99.90;;;;;;5015537;28;20450;-78
2022/05/27 09:17:43;;;;;;;7.37;2.40;;;17.80;99.90;;;;;;5018293;28;20901;-79
2022/05/27 09:20:22;;;;;;;12.73;3.40;;;17.70;99.90;;;;;;5034466;28;20518;-79
2022/05/27 09:22:59;;;;;;;6.33;2.77;;;18.00;99.90;;;;;;5038016;28;20457;-79
2022/05/27 09:25:38;;;;;;;5.17;1.93;;;18.40;99.90;;;;;;5040765;28;20457;-80
2022/05/27 09:28:11;;;;;;;14.10;3.80;;;18.60;99.90;;;;;;5040195;28;20962;-79
2022/05/27 09:30:39;;;;;;;5.90;2.53;;;18.90;99.90;;;;;;5029947;28;21257;-79
2022/05/27 09:33:10;;;;;;;6.97;3.20;;;18.80;99.90;;;;;;5024336;28;21224;-78
2022/05/27 09:35:42;;;;;;;6.40;2.67;;;18.90;99.90;;;;;;5025107;28;20527;-79
2022/05/27 09:38:14;;;;;;;5.13;2.13;;;19.00;99.90;;;;;;5025099;28;20488;-80
2022/05/27 09:40:48;;;;;;;8.30;2.57;;;19.40;99.90;;;;;;5024460;28;20492;-78
2022/05/27 09:43:21;;;;;;;7.23;2.47;;;19.60;99.90;;;;;;5025948;28;20829;-79
2022/05/27 09:45:51;;;;;;;5.90;2.70;;;19.70;99.90;;;;;;5025726;28;20963;-79
2022/05/27 09:48:18;;;;;;;6.40;2.40;;;19.40;99.90;;;;;;5027260;28;20457;-79
2022/05/27 09:50:48;;;;;;;9.43;2.87;;;19.70;99.90;;;;;;5029211;28;20453;-79
2022/05/27 09:53:19;;;;;;;7.50;2.30;;;20.20;99.90;;;;;;5027214;28;20445;-79
2022/05/27 09:55:53;;;;;;;7.63;2.30;;;20.70;99.90;;;;;;5028180;28;20981;-79
2022/05/27 09:58:25;;;;;;;8.07;2.37;;;20.90;99.90;;;;;;5026715;28;20541;-79
2022/05/27 10:00:52;;;;;;;9.67;2.80;;;21.40;99.90;;;;;;5030677;28;20495;-80
2022/05/27 10:03:32;;;;;;;9.30;2.50;;;21.40;99.90;;;;;;5044496;28;20480;-81
2022/05/27 10:06:01;;;;;;;8.03;2.70;;;21.60;99.90;;;;;;5047984;28;20463;-80
2022/05/27 10:08:35;;;;;;;10.10;3.10;;;21.60;99.90;;;;;;5046169;28;20484;-80
2022/05/27 10:11:21;;;;;;;8.77;3.50;;;21.50;99.90;;;;;;5036966;28;20456;-79
2022/05/27 10:13:50;;;;;;;8.23;2.70;;;21.00;99.90;;;;;;5025301;28;20453;-80
2022/05/27 10:16:25;;;;;;;15.77;2.80;;;20.90;99.90;;;;;;5024862;28;20446;-80
2022/05/27 10:19:08;;;;;;;10.30;2.43;;;20.20;99.90;;;;;;5025294;28;20457;-80
2022/05/27 10:21:49;;;;;;;6.23;2.30;;;20.90;99.90;;;;;;5025169;28;20461;-79
2022/05/27 10:24:19;;;;;;;6.13;2.53;;;21.50;99.90;;;;;;5024893;28;20456;-80
2022/05/27 10:27:05;;;;;;;5.13;2.00;;;22.00;99.90;;;;;;5025137;28;20505;-80
2022/05/27 10:29:33;;;;;;;5.90;2.60;;;22.50;99.90;;;;;;5024867;28;20469;-80
2022/05/27 10:32:01;;;;;;;7.57;2.53;;;22.50;99.90;;;;;;5026014;28;20465;-80
2022/05/27 10:34:42;;;;;;;6.30;2.40;;;22.90;99.90;;;;;;5040202;28;20475;-80
2022/05/27 10:37:21;;;;;;;6.97;2.53;;;22.60;99.90;;;;;;5048144;28;20548;-81
2022/05/27 10:40:00;;;;;;;5.60;2.20;;;23.20;99.90;;;;;;5046542;28;20492;-81
2022/05/27 10:42:40;;;;;;;9.80;2.47;;;23.60;99.90;;;;;;5045033;28;20519;-80
2022/05/27 10:45:19;;;;;;;7.40;2.57;;;23.60;99.90;;;;;;5047975;28;20527;-79
2022/05/27 10:48:24;;;;;;;5.90;2.30;;;23.60;99.90;;;;;;5047827;28;20436;-81
2022/05/27 10:50:57;;;;;;;6.73;2.50;;;23.30;99.90;;;;;;5025860;28;20509;-80
2022/05/27 10:53:56;;;;;;;5.63;2.20;;;22.40;99.90;;;;;;5025299;28;20454;-79
2022/05/27 10:56:37;;;;;;;5.90;2.13;;;22.10;99.90;;;;;;5025994;28;20514;-79
2022/05/27 11:02:19;;;;;;;6.73;2.17;;;23.50;99.90;;;;;;5045352;28;20436;-80
2022/05/27 11:05:14;;;;;;;5.80;1.93;;;24.20;99.90;;;;;;5047475;28;20520;-80
2022/05/27 11:07:52;;;;;;;5.90;2.23;;;24.70;99.90;;;;;;5049282;28;20440;-79
2022/05/27 11:10:30;;;;;;;5.03;2.10;;;24.70;99.90;;;;;;5024440;28;20481;-80
2022/05/27 11:16:08;;;;;;;7.10;2.20;;;26.10;99.90;;;;;;5023296;28;20428;-78
2022/05/27 11:18:54;;;;;;;4.83;1.80;;;25.60;99.90;;;;;;5041152;28;20452;-81
2022/05/27 11:21:40;;;;;;;7.07;2.17;;;24.70;99.90;;;;;;5042956;28;20523;-79
2022/05/27 11:24:40;;;;;;;4.97;2.47;;;24.70;99.90;;;;;;5043570;28;20456;-81
2022/05/27 11:27:15;;;;;;;6.47;2.33;;;25.60;99.90;;;;;;5036752;28;20510;-80
2022/05/27 11:29:59;;;;;;;9.63;2.23;;;26.50;99.90;;;;;;5023531;28;20469;-80
2022/05/27 11:32:53;;;;;;;10.03;2.33;;;27.00;99.90;;;;;;5021990;28;20552;-80
2022/05/27 11:35:28;;;;;;;6.60;1.63;;;26.30;99.90;;;;;;5020457;28;20454;-78
2022/05/27 11:38:07;;;;;;;6.53;2.23;;;26.00;99.90;;;;;;5023671;28;20444;-80
2022/05/27 11:40:40;;;;;;;5.60;2.33;;;25.40;99.90;;;;;;5042073;28;20519;-81
2022/05/27 11:43:37;;;;;;;6.47;2.07;;;25.80;99.90;;;;;;5045290;28;20523;-81
2022/05/27 11:46:32;;;;;;;10.10;2.77;;;26.60;99.90;;;;;;5044166;28;20453;-80
2022/05/27 11:49:24;;;;;;;8.50;3.37;;;26.50;99.80;;;;;;5042646;28;20964;-80
2022/05/27 11:52:02;;;;;;;9.13;2.97;;;25.00;96.70;;;;;;5029652;28;20533;-79
2022/05/27 11:55:01;;;;;;;7.20;2.63;;;23.80;99.90;;;;;;5023506;28;20459;-79
2022/05/27 11:57:43;;;;;;;6.57;2.10;;;25.00;99.90;;;;;;5017262;28;20556;-79
2022/05/27 12:00:13;;;;;;;8.27;2.00;;;25.90;99.90;;;;;;5020815;28;20504;-80
2022/05/27 12:02:55;;;;;;;5.73;2.03;;;26.70;99.90;;;;;;5038239;28;20448;-80
2022/05/27 12:05:26;;;;;;;6.87;2.53;;;26.60;96.90;;;;;;5044775;28;21009;-81
2022/05/27 12:07:59;;;;;;;4.60;1.87;;;25.70;94.10;;;;;;5043590;28;20464;-80
2022/05/27 12:10:32;;;;;;;6.50;2.13;;;25.20;94.40;;;;;;5042055;28;20475;-79
2022/05/27 12:13:06;;;;;;;6.30;2.00;;;24.40;97.20;;;;;;5023718;28;20456;-80
2022/05/27 12:15:38;;;;;;;7.20;2.53;;;25.20;99.00;;;;;;5023607;28;20537;-81
2022/05/27 12:18:10;;;;;;;6.70;2.03;;;26.60;98.00;;;;;;5027805;28;20462;-80
2022/05/27 12:20:39;;;;;;;4.90;2.10;;;27.70;92.50;;;;;;5026795;28;20499;-80
2022/05/27 12:23:08;;;;;;;4.70;1.90;;;27.90;88.90;;;;;;5043548;28;20535;-81
2022/05/27 12:25:39;;;;;;;4.70;1.90;;;28.30;87.30;;;;;;5047326;28;20453;-79
2022/05/27 12:28:07;;;;;;;4.67;2.00;;;27.50;87.70;;;;;;5048024;28;20531;-80
2022/05/27 12:30:39;;;;;;;5.10;1.80;;;28.60;93.00;;;;;;5045150;28;20886;-80
2022/05/27 12:33:07;;;;;;;5.27;1.87;;;29.00;88.90;;;;;;5030146;28;20489;-82
2022/05/27 12:35:51;;;;;;;4.30;1.80;;;29.60;78.70;;;;;;5023785;28;20449;-81
2022/05/27 12:38:24;;;;;;;6.20;2.10;;;30.10;79.10;;;;;;5027130;28;20457;-81
2022/05/27 12:40:53;;;;;;;8.40;2.40;;;29.50;77.10;;;;;;5026155;28;20489;-81
2022/05/27 12:43:30;;;;;;;7.13;2.20;;;29.50;75.80;;;;;;5027951;28;20457;-81
2022/05/27 12:46:15;;;;;;;6.00;2.23;;;30.30;78.80;;;;;;5047360;28;20452;-80
2022/05/27 12:48:44;;;;;;;9.57;2.57;;;30.40;76.10;;;;;;5046706;28;20496;-81
2022/05/27 12:51:40;;;;;;;7.60;3.03;;;31.30;77.50;;;;;;5044172;28;20453;-82
2022/05/27 12:54:07;;;;;;;4.63;2.30;;;30.20;73.10;;;;;;5046562;28;20472;-81
2022/05/27 13:02:53;;;;;;;7.13;2.40;;;27.60;75.80;;;;;;5025905;28;20433;-80
2022/05/27 13:05:23;;;;;;;7.13;2.70;;;28.00;73.10;;;;;;5026049;28;20902;-79
2022/05/27 13:07:53;;;;;;;6.10;1.87;;;27.20;67.80;;;;;;5044417;28;20556;-80
2022/05/27 13:10:47;;;;;;;7.40;2.30;;;25.80;77.10;;;;;;5046721;28;20472;-80
2022/05/27 13:13:17;;;;;;;5.80;2.20;;;26.60;85.40;;;;;;5046782;28;20453;-81
2022/05/27 13:15:53;;;;;;;7.10;2.10;;;28.40;85.60;;;;;;5037656;28;20450;-84
2022/05/27 13:18:33;;;;;;;7.93;1.93;;;28.50;72.70;;;;;;5023993;28;20461;-81
2022/05/27 13:21:08;;;;;;;6.83;2.23;;;28.30;72.40;;;;;;5022425;28;20485;-82
2022/05/27 13:23:51;;;;;;;7.63;2.57;;;27.30;67.80;;;;;;5026330;28;20481;-80
2022/05/27 13:26:30;;;;;;;7.20;2.00;;;26.60;73.60;;;;;;5026063;28;20533;-82
2022/05/27 13:28:58;;;;;;;4.03;1.87;;;27.50;69.10;;;;;;5027633;28;20484;-82
2022/05/27 13:31:32;;;;;;;5.27;2.00;;;27.50;72.90;;;;;;5046987;28;20453;-80
2022/05/27 13:34:07;;;;;;;4.10;1.90;;;26.50;71.60;;;;;;5046310;28;20460;-81
2022/05/27 13:36:39;;;;;;;7.67;2.80;;;25.20;74.30;;;;;;5039934;28;20434;-78
2022/05/27 13:39:11;;;;;;;4.87;1.87;;;26.50;69.30;;;;;;5025475;28;20474;-81
2022/05/27 13:41:41;;;;;;;4.63;1.70;;;27.50;69.40;;;;;;5021039;28;20496;-81